Long Island, KS (67647)

1:46 PM CST on February 01, 2015 (GMT -0600)
Sarrada Farms 0.1 mi W | Change Station
CLOSE
Current Station
Personal Weather Station
Location: Logan, KS
Elevation: 2021 ft
Nearby Weather Stations

Elev 2021 ft 39.66 °N, 99.58 °W | Updated 6 seconds ago

Overcast
Overcast
15.8 °F
Feels Like -5 °F
N
31.1
Wind Variable Wind from North
Gusts 39.0 mph

Today
High -- | Low -- °F
--% Chance of Precip.
Yesterday
High -- | Low -- °F
Precip. -- in
7:46 AM 5:57 PM
Waxing Gibbous, 96% visible
Pressure 30.20 in
Visibility 2.5 miles
Clouds Mostly Cloudy 1200 ft
Mostly Cloudy 1900 ft
Overcast 2400 ft
Windchill -5 °F
Dew Point 10 °F
Humidity 78%
Rainfall 0.00 in
Snow Depth Not available.
UV 1 out of 12
Pollen .10 out of 12
Air Quality Not available.
Flu Activity Not available.
METAR KHDE 011935Z AUTO 33023G30KT 2 1/2SM HZ BKN012 BKN019 OVC024 M11/M14 A3020 RMK AO2 VIS 1 1/4V4 T11101142

More Conditions Fewer Conditions

Pressure 30.20 in
Visibility 2.5 miles
Clouds Mostly Cloudy 1200 ft
Mostly Cloudy 1900 ft
Overcast 2400 ft
Windchill -5 °F
Dew Point 10 °F
Humidity 78%
Rainfall 0.00 in
Snow Depth Not available.
UV 1 out of 12
Pollen .10 out of 12
Air Quality Not available.
Flu Activity Not available.
METAR KHDE 011935Z AUTO 33023G30KT 2 1/2SM HZ BKN012 BKN019 OVC024 M11/M14 A3020 RMK AO2 VIS 1 1/4V4 T11101142

More Conditions Fewer Conditions

10-Day Weather Forecast

Almanac

Astronomy

Feb. 01, 2015 Rise Set
Actual Time
Civil Twilight
Nautical Twilight
Astronomical Twilight
Moon
Length of Visible Light
Length of Day
Tomorrow will be .
, % of the Moon is Illuminated

Today's Extremes

State Highs State Lows

Community

WunderPhotos

Upload Photos

1,792,471 photos uploaded!

WunderBlogs® & News

Nearby

Air Quality

  Air Quality AQ Index Pollutant
Not available.

Snow Depth

Station Depth Elevation

Earthquake Activity

City Distance Mag. Time & Date
Minimum magnitude displayed is 2.5.

Coastal Water Temperatures

Place Temperature

Nearby Weather Stations